Time;durP1;ratioP1;P1;durP2;ratioP2;P2;SDS_P1;SDS_P2;PMS_P1;PMS_P2;Temp;Humidity;BMP_temperature;BMP_pressure;BME280_temperature;BME280_humidity;BME280_pressure;Samples;Min_cycle;Max_cycle;Signal;HPM_P1;HPM_P2
2021/12/13 00:07:05;;;;;;;303.77;18.77;;;;;;;3.93;100.00;97063.06;20497096;28;20884;-72
2021/12/13 00:17:21;;;;;;;348.65;22.08;;;;;;;3.93;100.00;97051.78;20514351;28;20047;-72
2021/12/13 00:27:26;;;;;;;332.02;19.23;;;;;;;3.88;100.00;97054.28;20515636;28;20081;-72
2021/12/13 00:37:44;;;;;;;278.42;16.63;;;;;;;3.91;100.00;97052.00;20504577;28;20059;-71
2021/12/13 00:47:45;;;;;;;184.63;13.32;;;;;;;3.90;100.00;97068.75;20505754;28;20049;-72
2021/12/13 00:57:51;;;;;;;564.50;37.65;;;;;;;3.91;100.00;97062.50;20515868;28;20039;-72
2021/12/13 01:08:15;;;;;;;247.07;16.33;;;;;;;3.90;100.00;97062.72;20511704;28;20082;-72
2021/12/13 01:18:33;;;;;;;302.95;19.23;;;;;;;3.88;100.00;97064.75;20505325;28;20059;-72
2021/12/13 01:28:41;;;;;;;445.40;24.92;;;;;;;3.89;100.00;97061.91;20504818;28;22983;-72
2021/12/13 01:38:48;;;;;;;386.52;23.67;;;;;;;3.88;100.00;97060.31;20507475;28;20202;-72
2021/12/13 01:48:52;;;;;;;274.85;16.77;;;;;;;3.92;100.00;97056.22;20503657;28;20365;-72
2021/12/13 01:58:55;;;;;;;154.30;14.02;;;;;;;3.95;100.00;97070.72;20494599;28;20083;-72
2021/12/13 02:08:59;;;;;;;249.63;18.52;;;;;;;3.90;100.00;97070.56;20504616;28;20047;-72
2021/12/13 02:19:01;;;;;;;90.88;10.05;;;;;;;3.91;100.00;97072.19;20528713;28;20192;-71
2021/12/13 02:29:15;;;;;;;95.93;12.20;;;;;;;3.98;100.00;97075.50;20526495;28;20036;-72
2021/12/13 02:49:45;;;;;;;18.48;8.10;;;;;;;3.99;100.00;97064.81;20523386;28;20055;-73
2021/12/13 02:59:52;;;;;;;62.22;12.50;;;;;;;3.94;100.00;97064.69;20497265;28;20046;-72
2021/12/13 03:09:55;;;;;;;31.55;9.93;;;;;;;3.95;100.00;97068.88;20529390;28;20054;-72
2021/12/13 03:20:20;;;;;;;21.08;8.95;;;;;;;4.00;100.00;97070.84;20502401;28;20054;-71
2021/12/13 03:30:27;;;;;;;20.58;8.60;;;;;;;4.01;100.00;97081.09;20531571;28;20260;-72
2021/12/13 03:51:02;;;;;;;23.25;7.88;;;;;;;4.00;100.00;97076.06;20516089;28;20054;-72
2021/12/13 04:01:17;;;;;;;37.70;8.67;;;;;;;4.04;100.00;97082.47;20500710;28;20466;-72
2021/12/13 04:11:17;;;;;;;227.98;18.20;;;;;;;3.99;100.00;97083.16;20507364;28;20792;-72
2021/12/13 04:21:20;;;;;;;140.20;12.63;;;;;;;4.00;100.00;97086.56;20502695;28;20543;-71
2021/12/13 04:31:24;;;;;;;23.50;8.43;;;;;;;4.07;100.00;97092.53;20511904;28;20378;-72
2021/12/13 04:41:35;;;;;;;184.85;15.93;;;;;;;4.14;100.00;97095.84;20512333;28;20130;-72
2021/12/13 04:51:43;;;;;;;356.77;20.38;;;;;;;4.05;100.00;97102.44;20521482;28;20157;-72
2021/12/13 05:01:47;;;;;;;232.75;14.30;;;;;;;4.02;100.00;97097.63;20515676;28;20043;-72
2021/12/13 05:12:15;;;;;;;568.75;31.63;;;;;;;3.96;100.00;97103.75;20493647;28;20125;-72
2021/12/13 05:22:18;;;;;;;405.92;21.55;;;;;;;3.97;100.00;97110.63;20513159;28;20061;-72
2021/12/13 05:32:31;;;;;;;141.52;14.90;;;;;;;3.94;100.00;97106.63;20498337;28;20078;-72
2021/12/13 05:42:40;;;;;;;332.60;22.65;;;;;;;3.95;100.00;97110.03;20504062;28;20263;-72
2021/12/13 05:52:40;;;;;;;56.78;9.93;;;;;;;3.97;100.00;97108.00;20507027;28;20471;-72
2021/12/13 06:03:00;;;;;;;306.13;20.80;;;;;;;3.95;100.00;97120.53;20510311;28;20039;-72
2021/12/13 06:13:04;;;;;;;84.07;11.80;;;;;;;3.89;100.00;97135.31;20479016;28;20038;-72
2021/12/13 06:23:10;;;;;;;176.93;14.90;;;;;;;3.85;100.00;97133.34;20508544;28;20475;-74
2021/12/13 06:33:12;;;;;;;25.27;9.25;;;;;;;3.90;100.00;97123.78;20494503;28;20436;-72
2021/12/13 06:43:25;;;;;;;24.40;9.60;;;;;;;3.93;100.00;97130.44;20489915;28;20039;-71
2021/12/13 06:53:25;;;;;;;48.08;10.77;;;;;;;3.93;100.00;97123.34;20502109;28;20054;-73
2021/12/13 07:03:32;;;;;;;262.23;21.30;;;;;;;3.87;100.00;97128.69;20515522;28;20051;-74
2021/12/13 07:13:32;;;;;;;;;;;;;;;3.87;100.00;97132.09;20504973;28;20301;-73
2021/12/13 07:23:56;;;;;;;26.38;8.68;;;;;;;3.87;100.00;97133.94;20507959;28;19930;-73
2021/12/13 07:34:09;;;;;;;380.27;24.50;;;;;;;3.86;100.00;97142.81;20503768;28;21514;-74
2021/12/13 07:44:24;;;;;;;287.20;17.77;;;;;;;3.81;100.00;97139.03;20526673;28;20038;-77
2021/12/13 07:54:24;;;;;;;48.25;8.70;;;;;;;3.85;100.00;97143.84;20538695;28;20457;-77
2021/12/13 08:04:27;;;;;;;32.10;8.68;;;;;;;3.92;100.00;97152.41;20538568;28;20076;-77
2021/12/13 08:14:32;;;;;;;25.25;7.07;;;;;;;4.01;100.00;97158.97;20508025;28;20053;-77
2021/12/13 08:24:42;;;;;;;11.85;5.38;;;;;;;4.07;100.00;97160.69;20524961;28;20454;-76
2021/12/13 08:34:53;;;;;;;10.68;5.40;;;;;;;4.11;100.00;97169.72;20530065;28;20514;-77
2021/12/13 08:45:03;;;;;;;27.90;9.82;;;;;;;4.29;100.00;97170.69;20547750;28;20034;-77
2021/12/13 08:55:15;;;;;;;25.02;6.47;;;;;;;4.51;100.00;97170.97;20526314;28;20343;-77
2021/12/13 09:05:25;;;;;;;55.35;8.38;;;;;;;4.74;100.00;97178.94;20524171;28;20097;-77
2021/12/13 09:15:30;;;;;;;23.55;5.88;;;;;;;4.89;100.00;97196.88;20507279;28;20046;-77
2021/12/13 09:25:45;;;;;;;19.25;6.05;;;;;;;5.03;100.00;97200.88;20477953;28;20746;-76
2021/12/13 09:35:52;;;;;;;11.93;6.00;;;;;;;5.20;100.00;97197.56;20513394;28;23889;-77
2021/12/13 09:45:54;;;;;;;8.10;3.93;;;;;;;5.24;100.00;97199.50;20494501;28;20043;-77
2021/12/13 09:55:54;;;;;;;39.63;6.30;;;;;;;5.32;100.00;97194.97;20483541;28;20130;-77
2021/12/13 10:06:00;;;;;;;14.85;4.25;;;;;;;5.53;100.00;97201.44;20485809;28;20039;-78
2021/12/13 10:16:07;;;;;;;6.68;3.10;;;;;;;5.49;100.00;97192.44;20496482;28;20046;-77
2021/12/13 10:26:10;;;;;;;10.13;3.20;;;;;;;5.36;100.00;97188.22;20508474;28;20041;-77
2021/12/13 10:36:11;;;;;;;6.78;2.97;;;;;;;5.29;100.00;97177.00;20543724;28;20475;-77
2021/12/13 10:46:21;;;;;;;5.55;2.22;;;;;;;5.37;100.00;97182.75;20533769;28;20055;-77
2021/12/13 10:56:26;;;;;;;7.28;2.92;;;;;;;5.12;100.00;97179.53;20501074;28;20126;-77
2021/12/13 11:06:27;;;;;;;7.18;3.10;;;;;;;5.23;100.00;97182.16;20539047;28;20364;-77
2021/12/13 11:16:34;;;;;;;4.35;1.40;;;;;;;5.49;100.00;97159.06;20520315;28;20050;-76
2021/12/13 11:26:40;;;;;;;6.80;3.00;;;;;;;5.61;100.00;97159.06;20513467;28;20127;-76
2021/12/13 11:37:25;;;;;;;10.90;4.10;;;;;;;5.51;100.00;97150.97;20477601;28;20047;-76
2021/12/13 11:47:37;;;;;;;4.30;1.70;;;;;;;5.65;100.00;97152.31;20534249;28;20054;-76
2021/12/13 11:58:19;;;;;;;5.53;1.70;;;;;;;5.72;100.00;97150.34;20444488;28;20038;-77
2021/12/13 12:09:03;;;;;;;5.10;2.03;;;;;;;5.67;100.00;97152.88;20439257;28;20349;-77
2021/12/13 12:19:07;;;;;;;4.55;1.70;;;;;;;5.63;100.00;97152.53;20479843;28;20055;-76
2021/12/13 12:29:12;;;;;;;5.15;1.80;;;;;;;5.54;100.00;97137.38;20514132;28;20549;-76
2021/12/13 12:50:28;;;;;;;3.38;1.30;;;;;;;5.71;100.00;97134.81;20465331;28;20378;-77
2021/12/13 13:00:29;;;;;;;1.90;0.77;;;;;;;5.72;100.00;97128.50;20503355;28;20047;-76
2021/12/13 13:21:02;;;;;;;2.60;0.80;;;;;;;5.56;100.00;97125.59;20491705;28;20471;-76
2021/12/13 13:31:32;;;;;;;2.77;1.10;;;;;;;5.46;100.00;97128.00;20538098;28;20433;-76
2021/12/13 13:41:35;;;;;;;3.13;1.25;;;;;;;5.49;100.00;97114.38;20459903;28;20287;-76
2021/12/13 13:51:36;;;;;;;5.13;1.70;;;;;;;5.40;100.00;97128.94;20537946;28;20138;-76
2021/12/13 14:01:43;;;;;;;4.70;1.50;;;;;;;5.36;100.00;97127.78;20505711;28;21637;-75
2021/12/13 14:11:52;;;;;;;;;;;;;;;5.21;100.00;97121.19;20502546;28;20268;-75
2021/12/13 14:21:53;;;;;;;4.55;2.25;;;;;;;5.12;100.00;97124.38;20492270;28;19925;-75
2021/12/13 14:31:54;;;;;;;6.40;2.40;;;;;;;5.11;100.00;97135.91;20492780;28;20046;-76
2021/12/13 14:42:01;;;;;;;6.05;2.72;;;;;;;5.04;100.00;97143.91;20507899;28;20049;-75
2021/12/13 14:52:06;;;;;;;10.05;2.70;;;;;;;4.85;100.00;97137.97;20500678;28;20078;-76
2021/12/13 15:02:23;;;;;;;8.15;3.67;;;;;;;4.70;100.00;97142.84;20508776;28;20951;-75
2021/12/13 15:12:37;;;;;;;;;;;;;;;4.63;100.00;97141.13;20533160;28;20042;-76
2021/12/13 15:22:41;;;;;;;7.65;3.50;;;;;;;4.60;100.00;97151.28;20474169;28;19930;-75
2021/12/13 15:32:45;;;;;;;7.63;3.75;;;;;;;4.57;100.00;97152.50;20484421;28;20047;-75
2021/12/13 15:42:50;;;;;;;7.18;3.55;;;;;;;4.57;100.00;97152.50;20480198;28;20493;-75
2021/12/13 15:53:07;;;;;;;7.40;3.53;;;;;;;4.53;100.00;97140.06;20494279;28;20125;-76
2021/12/13 16:03:21;;;;;;;8.85;4.00;;;;;;;4.44;100.00;97152.72;20497964;28;20579;-76
2021/12/13 16:13:24;;;;;;;10.38;4.97;;;;;;;4.40;100.00;97165.47;20485395;28;20173;-76
2021/12/13 16:23:26;;;;;;;10.75;5.00;;;;;;;4.42;100.00;97145.06;20507222;28;21258;-76
2021/12/13 16:33:33;;;;;;;9.35;4.45;;;;;;;4.42;100.00;97155.56;20475921;28;20941;-75
2021/12/13 16:43:37;;;;;;;9.68;4.40;;;;;;;4.40;100.00;97151.56;20481310;28;20035;-75
2021/12/13 16:53:39;;;;;;;15.73;8.05;;;;;;;4.35;100.00;97159.28;20482171;28;20502;-76
2021/12/13 17:03:41;;;;;;;16.08;7.60;;;;;;;4.36;100.00;97156.47;20492445;28;20508;-75
2021/12/13 17:25:03;;;;;;;9.52;4.63;;;;;;;4.34;100.00;97165.59;20462936;28;20047;-73
2021/12/13 17:35:11;;;;;;;9.52;4.60;;;;;;;4.29;100.00;97176.75;20467032;28;20047;-73
2021/12/13 17:45:15;;;;;;;12.77;5.63;;;;;;;4.27;100.00;97172.72;20500802;28;20046;-73
2021/12/13 17:55:16;;;;;;;12.65;6.20;;;;;;;4.23;100.00;97165.31;20443432;28;20043;-73
2021/12/13 18:05:29;;;;;;;15.13;7.15;;;;;;;4.27;100.00;97168.31;20458685;28;20051;-72
2021/12/13 18:15:32;;;;;;;11.10;6.10;;;;;;;4.18;100.00;97183.53;20476844;28;20058;-74
2021/12/13 18:25:36;;;;;;;12.00;5.22;;;;;;;4.10;100.00;97183.84;20506935;28;20038;-73
2021/12/13 18:35:42;;;;;;;13.90;5.53;;;;;;;4.09;100.00;97181.44;20479190;28;20047;-73
2021/12/13 18:45:53;;;;;;;8.40;4.03;;;;;;;4.14;100.00;97185.00;20490632;28;20154;-74
2021/12/13 18:56:03;;;;;;;9.65;4.57;;;;;;;4.09;100.00;97171.75;20510713;28;20101;-73
2021/12/13 19:06:08;;;;;;;13.50;5.85;;;;;;;4.07;100.00;97171.19;20503231;28;20410;-73
2021/12/13 19:16:16;;;;;;;10.15;4.97;;;;;;;4.10;100.00;97154.19;20409565;28;20191;-73
2021/12/13 19:26:24;;;;;;;9.23;5.10;;;;;;;4.12;100.00;97150.31;20452859;28;20153;-73
2021/12/13 19:36:29;;;;;;;15.10;6.82;;;;;;;4.09;100.00;97147.38;20491527;28;20050;-73
2021/12/13 19:46:47;;;;;;;104.10;11.43;;;;;;;4.06;100.00;97150.41;20463760;28;20402;-73
2021/12/13 19:56:56;;;;;;;18.15;7.60;;;;;;;4.08;100.00;97138.69;20438348;28;20502;-73
2021/12/13 20:07:05;;;;;;;34.92;8.73;;;;;;;4.13;100.00;97130.16;20446128;28;20234;-73
2021/12/13 20:17:32;;;;;;;36.50;10.45;;;;;;;4.14;100.00;97124.69;20478800;28;20043;-73
2021/12/13 20:27:51;;;;;;;33.45;11.80;;;;;;;4.16;100.00;97108.72;20425474;28;20058;-73
2021/12/13 20:37:58;;;;;;;31.05;11.48;;;;;;;4.18;100.00;97112.72;20466924;28;20110;-72
2021/12/13 20:48:05;;;;;;;30.30;10.17;;;;;;;4.23;100.00;97120.72;20481209;28;20050;-73
2021/12/13 20:58:14;;;;;;;29.48;11.43;;;;;;;4.22;100.00;97119.13;20460472;28;20450;-73
2021/12/13 21:08:19;;;;;;;33.97;12.48;;;;;;;4.27;100.00;97122.91;20518247;28;20051;-73
2021/12/13 21:18:32;;;;;;;26.90;11.40;;;;;;;4.22;100.00;97107.84;20434877;28;20045;-73
2021/12/13 21:28:38;;;;;;;40.03;14.20;;;;;;;4.23;100.00;97109.47;20456753;28;20546;-72
2021/12/13 21:49:00;;;;;;;49.47;16.80;;;;;;;4.28;100.00;97114.03;20482856;28;20050;-73
2021/12/13 21:59:13;;;;;;;45.35;14.98;;;;;;;4.20;100.00;97113.31;20501560;28;20126;-73
2021/12/13 22:09:20;;;;;;;60.88;17.75;;;;;;;4.20;100.00;97104.63;20463780;28;20096;-73
2021/12/13 22:19:32;;;;;;;92.93;21.85;;;;;;;4.16;100.00;97090.38;20447086;28;20421;-74
2021/12/13 22:29:35;;;;;;;91.38;22.23;;;;;;;4.18;100.00;97099.63;20495019;28;20038;-74
2021/12/13 22:50:17;;;;;;;68.78;22.60;;;;;;;4.08;100.00;97101.19;20446168;28;20058;-74
2021/12/13 23:21:15;;;;;;;76.80;19.95;;;;;;;4.15;100.00;97080.94;20597173;23;20065;-73
2021/12/13 23:31:17;;;;;;;112.40;24.90;;;;;;;4.12;100.00;97081.38;20511486;28;20039;-74
2021/12/13 23:51:42;;;;;;;92.30;24.55;;;;;;;4.16;100.00;97085.13;20524142;28;20066;-74
